createdAt,value
2023-02-16T00:02:26.003Z,16.00
2023-02-16T00:04:59.412Z,17.27
2023-02-16T00:07:37.318Z,16.30
2023-02-16T00:10:33.519Z,19.33
2023-02-16T00:14:03.352Z,17.33
2023-02-16T00:16:54.943Z,15.98
2023-02-16T00:19:58.786Z,14.77
2023-02-16T00:22:28.396Z,15.57
2023-02-16T00:27:26.163Z,16.10
2023-02-16T00:29:53.984Z,15.90
2023-02-16T00:32:25.117Z,16.42
2023-02-16T00:34:53.138Z,17.25
2023-02-16T00:37:29.738Z,15.95
2023-02-16T00:39:58.925Z,16.67
2023-02-16T00:42:32.908Z,16.98
2023-02-16T00:45:49.154Z,15.65
2023-02-16T00:48:16.997Z,15.60
2023-02-16T00:50:45.170Z,18.80
2023-02-16T00:56:03.825Z,17.63
2023-02-16T00:58:31.486Z,16.77
2023-02-16T01:01:14.624Z,17.63
2023-02-16T01:04:09.724Z,18.02
2023-02-16T01:10:35.243Z,15.98
2023-02-16T01:13:03.402Z,16.45
2023-02-16T01:15:54.746Z,16.27
2023-02-16T01:18:38.675Z,17.75
2023-02-16T01:21:09.198Z,17.67
2023-02-16T01:26:48.859Z,14.43
2023-02-16T01:29:20.778Z,15.73
2023-02-16T01:31:52.718Z,17.77
2023-02-16T01:34:48.911Z,19.40
2023-02-16T01:37:28.994Z,17.92
2023-02-16T01:39:56.822Z,18.35
2023-02-16T01:42:30.051Z,20.05
2023-02-16T01:45:34.447Z,18.48
2023-02-16T01:48:33.355Z,19.70
2023-02-16T01:51:35.913Z,18.85
2023-02-16T01:54:32.678Z,17.88
2023-02-16T01:57:06.176Z,20.38
2023-02-16T01:59:41.344Z,19.63
2023-02-16T02:02:36.456Z,19.45
2023-02-16T02:05:40.528Z,19.65
2023-02-16T02:09:31.457Z,19.45
2023-02-16T02:12:53.145Z,19.73
2023-02-16T02:16:18.130Z,17.83
2023-02-16T02:18:26.119Z,20.27
2023-02-16T02:21:48.733Z,20.15
2023-02-16T02:24:50.837Z,19.52
2023-02-16T02:27:34.207Z,21.02
2023-02-16T02:30:43.039Z,18.60
2023-02-16T02:33:54.838Z,20.42
2023-02-16T02:36:45.752Z,21.13
2023-02-16T02:39:15.452Z,20.08
2023-02-16T02:42:28.612Z,20.52
2023-02-16T02:45:26.232Z,22.48
2023-02-16T02:47:57.515Z,22.83
2023-02-16T02:51:08.050Z,22.83
2023-02-16T02:53:48.132Z,21.58
2023-02-16T02:56:36.340Z,22.23
2023-02-16T03:02:03.701Z,21.15
2023-02-16T03:04:33.325Z,23.50
2023-02-16T03:07:02.434Z,24.13
2023-02-16T03:09:31.156Z,22.23
2023-02-16T03:12:18.046Z,21.88
2023-02-16T03:14:52.346Z,23.02
2023-02-16T03:17:43.688Z,23.92
2023-02-16T03:20:34.909Z,21.75
2023-02-16T03:23:28.437Z,22.92
2023-02-16T03:26:15.154Z,23.20
2023-02-16T03:29:04.366Z,23.50
2023-02-16T03:31:47.203Z,22.77
2023-02-16T03:34:22.883Z,25.27
2023-02-16T03:36:58.624Z,24.83
2023-02-16T03:39:27.312Z,24.52
2023-02-16T03:41:58.346Z,24.73
2023-02-16T03:44:26.106Z,26.42
2023-02-16T03:46:56.843Z,24.65
2023-02-16T03:49:31.718Z,25.98
2023-02-16T03:52:19.416Z,26.08
2023-02-16T03:54:47.169Z,24.88
2023-02-16T03:57:14.860Z,26.98
2023-02-16T03:59:42.708Z,24.70
2023-02-16T04:02:17.950Z,25.73
2023-02-16T04:04:46.122Z,27.85
2023-02-16T04:12:18.333Z,25.13
2023-02-16T04:18:20.057Z,24.20
2023-02-16T04:20:48.695Z,27.13
2023-02-16T04:23:20.256Z,26.00
2023-02-16T04:25:50.250Z,27.20
2023-02-16T04:28:24.053Z,28.17
2023-02-16T04:30:53.326Z,28.33
2023-02-16T04:33:25.112Z,27.45
2023-02-16T04:35:52.379Z,27.90
2023-02-16T04:38:45.945Z,26.45
2023-02-16T04:41:13.709Z,27.17
2023-02-16T04:44:03.682Z,28.52
2023-02-16T04:46:31.146Z,29.50
2023-02-16T04:49:22.579Z,27.27
2023-02-16T04:51:50.109Z,25.40
2023-02-16T04:56:52.693Z,24.83
2023-02-16T04:59:20.456Z,28.00
2023-02-16T05:01:49.168Z,28.40
2023-02-16T05:04:19.718Z,30.60
2023-02-16T05:09:24.721Z,26.00
2023-02-16T05:12:13.508Z,28.77
2023-02-16T05:14:59.303Z,28.00
2023-02-16T05:17:33.296Z,28.88
2023-02-16T05:20:01.919Z,26.38
2023-02-16T05:22:37.194Z,28.73
2023-02-16T05:25:08.056Z,26.88
2023-02-16T05:27:40.849Z,26.73
2023-02-16T05:33:17.549Z,27.23
2023-02-16T05:35:46.826Z,25.80
2023-02-16T05:38:14.195Z,28.17
2023-02-16T05:41:06.623Z,27.27
2023-02-16T05:43:35.529Z,31.85
2023-02-16T05:46:49.562Z,21.15
2023-02-16T05:49:23.698Z,30.02
2023-02-16T05:51:53.997Z,28.58
2023-02-16T05:54:21.546Z,28.73
2023-02-16T05:57:04.108Z,26.90
2023-02-16T05:59:41.550Z,28.52
2023-02-16T06:02:15.180Z,29.08
2023-02-16T06:04:58.488Z,30.48
2023-02-16T06:18:44.851Z,29.83
2023-02-16T06:22:07.638Z,26.80
2023-02-16T06:27:39.600Z,28.08
2023-02-16T06:30:08.851Z,28.10
2023-02-16T06:32:39.271Z,29.52
2023-02-16T06:35:10.193Z,29.70
2023-02-16T06:38:28.198Z,27.48
2023-02-16T06:44:30.899Z,26.33
2023-02-16T06:47:07.388Z,29.50
2023-02-16T06:50:23.780Z,28.50
2023-02-16T06:54:51.650Z,27.70
2023-02-16T06:57:36.811Z,28.75
2023-02-16T07:07:20.600Z,27.55
2023-02-16T07:09:47.953Z,27.38
2023-02-16T07:12:21.038Z,30.30
2023-02-16T07:14:50.391Z,29.23
2023-02-16T07:17:22.633Z,30.30
2023-02-16T07:19:50.367Z,28.42
2023-02-16T07:22:20.897Z,30.17
2023-02-16T07:24:56.663Z,30.20
2023-02-16T07:27:26.702Z,26.83
2023-02-16T07:29:54.827Z,30.00
2023-02-16T07:32:29.555Z,30.08
2023-02-16T07:35:00.044Z,27.45
2023-02-16T07:37:30.063Z,26.90
2023-02-16T07:39:57.866Z,27.92
2023-02-16T07:45:08.569Z,24.67
2023-02-16T07:47:41.235Z,25.98
2023-02-16T07:50:19.023Z,29.15
2023-02-16T07:52:46.279Z,28.05
2023-02-16T07:55:19.167Z,29.08
2023-02-16T08:01:25.152Z,28.45
2023-02-16T08:03:57.732Z,29.60
2023-02-16T08:13:23.527Z,33.22
2023-02-16T08:16:23.393Z,30.40
2023-02-16T08:19:42.611Z,37.63
2023-02-16T08:22:24.003Z,33.53
2023-02-16T08:27:42.574Z,31.50
2023-02-16T08:30:15.722Z,31.27
2023-02-16T08:32:44.142Z,29.48
2023-02-16T08:35:26.863Z,29.20
2023-02-16T08:38:01.474Z,29.92
2023-02-16T08:40:31.705Z,32.65
2023-02-16T08:43:04.078Z,51.88
2023-02-16T08:45:34.982Z,31.45
2023-02-16T08:48:05.284Z,38.03
2023-02-16T08:50:39.094Z,38.13
2023-02-16T08:53:11.502Z,31.50
2023-02-16T08:56:18.645Z,29.65
2023-02-16T09:15:46.216Z,23.17
2023-02-16T09:19:02.862Z,25.05
2023-02-16T09:30:29.835Z,21.77
2023-02-16T09:33:33.566Z,25.05
2023-02-16T09:39:36.477Z,31.42
2023-02-16T09:42:42.852Z,32.30
2023-02-16T09:45:53.388Z,33.15
2023-02-16T09:48:40.418Z,30.38
2023-02-16T09:51:47.402Z,22.73
2023-02-16T10:01:46.442Z,24.52
2023-02-16T10:04:43.867Z,23.95
2023-02-16T10:23:30.009Z,29.95
2023-02-16T10:34:03.988Z,24.20
2023-02-16T10:36:55.260Z,22.80
2023-02-16T10:39:45.359Z,23.33
2023-02-16T10:45:21.437Z,23.58
2023-02-16T10:47:48.883Z,24.65
2023-02-16T10:50:24.016Z,23.30
2023-02-16T10:52:54.243Z,22.10
2023-02-16T10:55:27.946Z,18.33
2023-02-16T10:58:02.810Z,30.52
2023-02-16T11:01:01.166Z,26.70
2023-02-16T11:03:43.855Z,36.85
2023-02-16T11:06:36.602Z,24.33
2023-02-16T11:09:06.900Z,21.83
2023-02-16T11:14:33.095Z,22.67
2023-02-16T11:17:26.960Z,21.13
2023-02-16T11:20:13.471Z,28.02
2023-02-16T11:22:44.110Z,24.35
2023-02-16T11:25:27.504Z,27.38
2023-02-16T11:28:00.944Z,26.42
2023-02-16T11:30:41.695Z,26.52
2023-02-16T11:33:32.806Z,24.27
2023-02-16T11:36:10.820Z,24.92
2023-02-16T11:38:43.782Z,25.40
2023-02-16T11:41:27.451Z,24.85
2023-02-16T11:46:47.146Z,27.92
2023-02-16T11:49:31.728Z,39.25
2023-02-16T11:52:03.775Z,32.75
2023-02-16T11:54:46.032Z,34.63
2023-02-16T11:57:15.850Z,31.17
2023-02-16T11:59:50.593Z,44.22
2023-02-16T12:05:35.732Z,27.63
2023-02-16T12:08:34.152Z,29.42
2023-02-16T12:11:38.408Z,26.85
2023-02-16T12:14:36.682Z,23.98
2023-02-16T12:17:10.616Z,28.05
2023-02-16T12:19:49.815Z,31.08
2023-02-16T12:22:43.772Z,26.20
2023-02-16T12:28:01.827Z,24.10
2023-02-16T12:31:03.589Z,44.97
2023-02-16T12:34:25.317Z,29.23
2023-02-16T12:37:29.425Z,30.95
2023-02-16T12:40:00.287Z,28.95
2023-02-16T12:42:59.379Z,57.47
2023-02-16T12:45:38.035Z,38.75
2023-02-16T12:51:28.821Z,32.22
2023-02-16T12:54:10.603Z,29.55
2023-02-16T12:57:09.311Z,37.20
2023-02-16T12:59:59.599Z,33.78
2023-02-16T13:02:43.230Z,36.90
2023-02-16T13:05:28.519Z,50.13
2023-02-16T13:08:30.377Z,36.85
2023-02-16T13:11:25.523Z,32.80
2023-02-16T13:13:57.224Z,39.58
2023-02-16T13:16:54.597Z,31.35
2023-02-16T13:19:26.023Z,32.17
2023-02-16T13:21:53.605Z,35.47
2023-02-16T13:24:22.195Z,41.08
2023-02-16T13:27:01.855Z,28.83
2023-02-16T13:30:07.810Z,38.38
2023-02-16T13:32:58.806Z,29.23
2023-02-16T13:36:01.402Z,34.65
2023-02-16T13:38:56.241Z,31.23
2023-02-16T13:42:03.407Z,34.95
2023-02-16T13:44:45.031Z,30.63
2023-02-16T13:47:19.990Z,31.23
2023-02-16T13:49:48.134Z,33.88
2023-02-16T13:52:31.154Z,30.33
2023-02-16T13:55:04.802Z,31.30
2023-02-16T13:57:50.803Z,30.65
2023-02-16T14:01:00.152Z,26.77
2023-02-16T14:04:33.333Z,28.05
2023-02-16T14:07:20.130Z,21.30
2023-02-16T14:09:51.881Z,26.58
2023-02-16T14:12:26.785Z,26.83
2023-02-16T14:14:54.191Z,24.63
2023-02-16T14:17:27.766Z,29.92
2023-02-16T14:20:11.688Z,29.42
2023-02-16T14:23:00.250Z,56.58
2023-02-16T14:28:23.716Z,57.17
2023-02-16T14:31:07.335Z,33.90
2023-02-16T14:34:02.547Z,52.65
2023-02-16T14:37:28.586Z,47.35
2023-02-16T14:40:17.169Z,48.28
2023-02-16T14:42:53.640Z,31.95
2023-02-16T14:45:21.368Z,35.25
2023-02-16T14:48:02.762Z,31.08
2023-02-16T14:50:49.765Z,29.17
2023-02-16T14:53:38.716Z,32.75
2023-02-16T14:56:33.333Z,31.85
2023-02-16T14:59:06.813Z,30.30
2023-02-16T15:01:55.820Z,28.63
2023-02-16T15:04:35.242Z,33.10
2023-02-16T15:07:07.629Z,31.70
2023-02-16T15:09:35.660Z,32.00
2023-02-16T15:12:23.411Z,34.03
2023-02-16T15:15:46.612Z,33.88
2023-02-16T15:26:46.865Z,33.00
2023-02-16T15:32:23.934Z,29.67
2023-02-16T15:34:55.065Z,32.22
2023-02-16T15:37:54.331Z,32.70
2023-02-16T15:40:36.075Z,29.83
2023-02-16T15:43:33.227Z,32.00
2023-02-16T15:46:09.341Z,31.60
2023-02-16T15:48:41.175Z,31.70
2023-02-16T15:51:11.570Z,30.45
2023-02-16T15:54:04.731Z,31.70
2023-02-16T15:56:51.834Z,36.53
2023-02-16T15:59:57.724Z,29.58
2023-02-16T16:02:29.674Z,31.52
2023-02-16T16:05:03.258Z,29.40
2023-02-16T16:36:45.136Z,27.92
2023-02-16T16:39:30.436Z,31.75
2023-02-16T16:42:15.432Z,31.55
2023-02-16T16:52:49.799Z,32.28
2023-02-16T16:55:43.324Z,34.67
2023-02-16T17:02:35.408Z,32.45
2023-02-16T17:05:49.275Z,33.92
2023-02-16T17:08:50.300Z,39.92
2023-02-16T17:19:27.016Z,29.92
2023-02-16T17:22:45.886Z,29.98
2023-02-16T17:25:51.418Z,43.92
2023-02-16T17:28:54.253Z,26.95
2023-02-16T17:37:35.564Z,30.63
2023-02-16T17:43:15.921Z,39.72
2023-02-16T17:46:08.965Z,32.17
2023-02-16T17:48:37.419Z,30.92
2023-02-16T17:51:07.935Z,39.55
2023-02-16T17:53:57.827Z,39.75
2023-02-16T17:57:01.335Z,31.25
2023-02-16T17:59:38.132Z,38.65
2023-02-16T18:09:37.159Z,38.47
2023-02-16T18:23:44.098Z,32.10
2023-02-16T18:26:43.325Z,31.70
2023-02-16T18:30:02.064Z,32.72
2023-02-16T18:32:47.263Z,30.70
2023-02-16T18:40:39.336Z,32.22
2023-02-16T18:51:07.166Z,30.75
2023-02-16T18:54:24.264Z,29.85
2023-02-16T18:56:58.360Z,29.98
2023-02-16T18:59:33.029Z,29.90
2023-02-16T19:02:27.173Z,32.35
2023-02-16T19:05:10.705Z,30.13
2023-02-16T19:07:45.015Z,34.40
2023-02-16T19:10:16.803Z,30.20
2023-02-16T19:12:47.815Z,28.98
2023-02-16T19:15:15.419Z,29.17
2023-02-16T19:17:51.876Z,27.90
2023-02-16T19:20:30.675Z,30.70
2023-02-16T19:23:07.081Z,30.77
2023-02-16T19:26:02.238Z,32.60
2023-02-16T19:28:49.045Z,29.25
2023-02-16T19:32:00.606Z,28.13
2023-02-16T19:37:47.899Z,29.23
2023-02-16T19:47:04.518Z,29.38
2023-02-16T19:49:41.518Z,31.88
2023-02-16T19:52:15.760Z,27.67
2023-02-16T19:55:19.006Z,29.85
2023-02-16T20:04:16.237Z,26.85
